BAW7 EGLL-RJAA
Flight info
| Callsign | BAW7 |
|---|---|
| Flight time | N/A |
| Altitude | 33000 |
| Route | DET L6 DVR UL9 KONAN DCT KOK DCT RITAX DCT BANUX DCT VEKIR DCT LATLO DCT INSAX DCT TONDO DCT PADGU DCT BULEN L744 UDROS UM859 KARDE UN644 ROLIN N644 LAGAS M747 BAGVA/N0494F350 M747 SUBUT T916 BALUN/K0907F350 T916 PIGAL M610 RULAD/K0904S1070 A343 NLT/K0900S1130 A343 POSOT B215 FKG W188 LIKMI W270 DKO W69 HUR B339 LADIX W34 IRTAK/K0893S1190 W34 ANRAT A326 DONVO G597 AGAVO/N0487F390 Y644 EGOBA G597 LANAT Y71 SHTLE Y79 GUPER Y81 RUTAS |
| Aircraft | A35K/H-SDE2E3GHIJ3J4J5LM1ORWXY/LB1D1 |
Departure
| Time | 2026-05-04 22:59 |
|---|---|
| Airport | London Heathrow Airport (EGLL) |
Arrival
| Time | N/A |
|---|---|
| Airport | Narita International Airport (RJAA) |
| Time | Latitude | Longitude | Altitude | Speed | Heading |
|---|---|---|---|---|---|
| 2026-05-04 21:45 | 51.47050 | -0.47733 | 95 ft | 0 kts | 89° |
| 2026-05-04 22:41 | 51.47050 | -0.47692 | 94 ft | 5 kts | 89° |
| 2026-05-04 22:41 | 51.47050 | -0.47634 | 96 ft | 5 kts | 89° |
| 2026-05-04 22:41 | 51.47050 | -0.47733 | 92 ft | 0 kts | 89° |
| 2026-05-04 22:43 | 51.47050 | -0.47746 | 92 ft | 4 kts | 89° |
| 2026-05-04 22:43 | 51.47050 | -0.47789 | 93 ft | 4 kts | 89° |
| 2026-05-04 22:44 | 51.47049 | -0.47821 | 94 ft | 4 kts | 89° |
| 2026-05-04 22:44 | 51.47049 | -0.47832 | 94 ft | 3 kts | 90° |
| 2026-05-04 22:44 | 51.47051 | -0.47861 | 94 ft | 4 kts | 144° |
| 2026-05-04 22:44 | 51.47068 | -0.47872 | 94 ft | 4 kts | 178° |
| 2026-05-04 22:45 | 51.47094 | -0.47872 | 93 ft | 4 kts | 182° |
| 2026-05-04 22:45 | 51.47114 | -0.47871 | 92 ft | 4 kts | 180° |
| 2026-05-04 22:45 | 51.47113 | -0.47871 | 92 ft | 0 kts | 180° |
| 2026-05-04 22:51 | 51.47112 | -0.47871 | 92 ft | 1 kts | 180° |
| 2026-05-04 22:52 | 51.47079 | -0.47871 | 93 ft | 9 kts | 181° |
| 2026-05-04 22:52 | 51.46982 | -0.47872 | 92 ft | 11 kts | 179° |
| 2026-05-04 22:52 | 51.46929 | -0.47871 | 92 ft | 11 kts | 180° |
| 2026-05-04 22:52 | 51.46849 | -0.47870 | 92 ft | 12 kts | 179° |
| 2026-05-04 22:53 | 51.46778 | -0.47874 | 92 ft | 8 kts | 195° |
| 2026-05-04 22:53 | 51.46745 | -0.47941 | 94 ft | 8 kts | 252° |
| 2026-05-04 22:53 | 51.46743 | -0.48029 | 92 ft | 8 kts | 270° |
| 2026-05-04 22:53 | 51.46742 | -0.48131 | 92 ft | 11 kts | 270° |
| 2026-05-04 22:54 | 51.46742 | -0.48259 | 93 ft | 12 kts | 269° |
| 2026-05-04 22:54 | 51.46741 | -0.48410 | 93 ft | 14 kts | 269° |
| 2026-05-04 22:54 | 51.46741 | -0.48570 | 92 ft | 14 kts | 270° |
| 2026-05-04 22:54 | 51.46737 | -0.48706 | 92 ft | 11 kts | 251° |
| 2026-05-04 22:55 | 51.46701 | -0.48744 | 97 ft | 5 kts | 194° |
| 2026-05-04 22:55 | 51.46667 | -0.48749 | 96 ft | 5 kts | 184° |
| 2026-05-04 22:55 | 51.46656 | -0.48751 | 95 ft | 0 kts | 185° |
| 2026-05-04 22:58 | 51.46631 | -0.48755 | 95 ft | 9 kts | 188° |
| 2026-05-04 22:58 | 51.46552 | -0.48789 | 94 ft | 12 kts | 185° |
| 2026-05-04 22:58 | 51.46486 | -0.48725 | 97 ft | 11 kts | 121° |
| 2026-05-04 22:58 | 51.46478 | -0.48607 | 95 ft | 12 kts | 89° |
| 2026-05-04 22:59 | 51.46480 | -0.48234 | 94 ft | 65 kts | 90° |
| 2026-05-04 22:59 | 51.46483 | -0.47144 | 95 ft | 129 kts | 89° |
| 2026-05-04 22:59 | 51.46483 | -0.45406 | 221 ft | 170 kts | 89° |
| 2026-05-04 22:59 | 51.46462 | -0.43542 | 1009 ft | 172 kts | 91° |
| 2026-05-04 23:00 | 51.46230 | -0.41559 | 1380 ft | 191 kts | 114° |
| 2026-05-04 23:00 | 51.45630 | -0.39605 | 1592 ft | 206 kts | 117° |
| 2026-05-04 23:00 | 51.44954 | -0.37447 | 1836 ft | 222 kts | 117° |
| 2026-05-04 23:00 | 51.44318 | -0.35148 | 2045 ft | 239 kts | 112° |
| 2026-05-04 23:01 | 51.43714 | -0.32566 | 2390 ft | 251 kts | 110° |
| 2026-05-04 23:01 | 51.43125 | -0.29910 | 2984 ft | 254 kts | 110° |
| 2026-05-04 23:01 | 51.42622 | -0.27187 | 3582 ft | 256 kts | 104° |
| 2026-05-04 23:01 | 51.42228 | -0.24380 | 4134 ft | 260 kts | 103° |
| 2026-05-04 23:02 | 51.41841 | -0.21525 | 4710 ft | 264 kts | 103° |
| 2026-05-04 23:02 | 51.41452 | -0.18671 | 5274 ft | 267 kts | 103° |
| 2026-05-04 23:02 | 51.41073 | -0.15895 | 5761 ft | 271 kts | 104° |
| 2026-05-04 23:02 | 51.40671 | -0.12940 | 6102 ft | 273 kts | 104° |
| 2026-05-04 23:03 | 51.40257 | -0.09944 | 6653 ft | 276 kts | 104° |
| 2026-05-04 23:03 | 51.39841 | -0.06944 | 7253 ft | 277 kts | 104° |
| 2026-05-04 23:03 | 51.39419 | -0.03908 | 7825 ft | 280 kts | 104° |
| 2026-05-04 23:03 | 51.38994 | -0.00852 | 8402 ft | 283 kts | 104° |
| 2026-05-04 23:04 | 51.38580 | 0.02244 | 9001 ft | 286 kts | 103° |
| 2026-05-04 23:04 | 51.38196 | 0.05393 | 9586 ft | 289 kts | 102° |
| 2026-05-04 23:04 | 51.37825 | 0.08569 | 10138 ft | 293 kts | 102° |
| 2026-05-04 23:04 | 51.37448 | 0.11802 | 10441 ft | 306 kts | 102° |
| 2026-05-04 23:05 | 51.37043 | 0.15231 | 10696 ft | 320 kts | 102° |
| 2026-05-04 23:05 | 51.36617 | 0.18795 | 10949 ft | 333 kts | 102° |
| 2026-05-04 23:05 | 51.36168 | 0.22502 | 11210 ft | 346 kts | 103° |
| 2026-05-04 23:05 | 51.35699 | 0.26344 | 11471 ft | 358 kts | 103° |
| 2026-05-04 23:06 | 51.35211 | 0.30326 | 11714 ft | 370 kts | 103° |
| 2026-05-04 23:06 | 51.34707 | 0.34430 | 11941 ft | 381 kts | 103° |
| 2026-05-04 23:06 | 51.34187 | 0.38647 | 12213 ft | 391 kts | 103° |
| 2026-05-04 23:06 | 51.33658 | 0.42937 | 12617 ft | 396 kts | 103° |
| 2026-05-04 23:07 | 51.33119 | 0.47287 | 13094 ft | 400 kts | 103° |
| 2026-05-04 23:07 | 51.32585 | 0.51593 | 13563 ft | 403 kts | 103° |
| 2026-05-04 23:07 | 51.32035 | 0.56007 | 14001 ft | 406 kts | 103° |
| 2026-05-04 23:07 | 51.31477 | 0.60460 | 14414 ft | 409 kts | 103° |
| 2026-05-04 23:08 | 51.30917 | 0.64922 | 14855 ft | 411 kts | 103° |
| 2026-05-04 23:08 | 51.30350 | 0.69423 | 15279 ft | 414 kts | 103° |
| 2026-05-04 23:08 | 51.29778 | 0.73949 | 15712 ft | 417 kts | 103° |
| 2026-05-04 23:08 | 51.29201 | 0.78500 | 16150 ft | 419 kts | 103° |
| 2026-05-04 23:09 | 51.28626 | 0.83020 | 16588 ft | 422 kts | 103° |
| 2026-05-04 23:09 | 51.28038 | 0.87620 | 17047 ft | 424 kts | 103° |
| 2026-05-04 23:09 | 51.27445 | 0.92251 | 17486 ft | 427 kts | 103° |
| 2026-05-04 23:09 | 51.26846 | 0.96910 | 17918 ft | 430 kts | 103° |
| 2026-05-04 23:10 | 51.26243 | 1.01584 | 18359 ft | 432 kts | 103° |
| 2026-05-04 23:10 | 51.25632 | 1.06306 | 18740 ft | 435 kts | 103° |
| 2026-05-04 23:10 | 51.25018 | 1.11039 | 19114 ft | 438 kts | 103° |
| 2026-05-04 23:10 | 51.24395 | 1.15821 | 19492 ft | 441 kts | 104° |
| 2026-05-04 23:11 | 51.23767 | 1.20628 | 19887 ft | 443 kts | 104° |
| 2026-05-04 23:11 | 51.23134 | 1.25450 | 20275 ft | 446 kts | 104° |
| 2026-05-04 23:11 | 51.22504 | 1.30239 | 20660 ft | 448 kts | 104° |
| 2026-05-04 23:11 | 51.21860 | 1.35113 | 21041 ft | 451 kts | 104° |
| 2026-05-04 23:12 | 51.21209 | 1.40026 | 21453 ft | 453 kts | 104° |
| 2026-05-04 23:12 | 51.20553 | 1.44957 | 21843 ft | 456 kts | 104° |
| 2026-05-04 23:12 | 51.19890 | 1.49924 | 22237 ft | 459 kts | 104° |
| 2026-05-04 23:12 | 51.19222 | 1.54908 | 22627 ft | 462 kts | 104° |
| 2026-05-04 23:13 | 51.18547 | 1.59934 | 23043 ft | 464 kts | 105° |
| 2026-05-04 23:13 | 51.17867 | 1.64972 | 23448 ft | 467 kts | 105° |
| 2026-05-04 23:13 | 51.17181 | 1.70044 | 23790 ft | 470 kts | 105° |
| 2026-05-04 23:13 | 51.16488 | 1.75149 | 24120 ft | 472 kts | 105° |
| 2026-05-04 23:14 | 51.15800 | 1.80201 | 24453 ft | 474 kts | 105° |
| 2026-05-04 23:14 | 51.15096 | 1.85352 | 24778 ft | 477 kts | 105° |
| 2026-05-04 23:14 | 51.14385 | 1.90529 | 25092 ft | 480 kts | 105° |
| 2026-05-04 23:14 | 51.13669 | 1.95733 | 25396 ft | 482 kts | 105° |
| 2026-05-04 23:15 | 51.13107 | 2.01013 | 25714 ft | 487 kts | 100° |
| 2026-05-04 23:15 | 51.12734 | 2.06391 | 26022 ft | 490 kts | 99° |
| 2026-05-04 23:15 | 51.12413 | 2.11812 | 26330 ft | 493 kts | 98° |
| 2026-05-04 23:15 | 51.12119 | 2.17258 | 26630 ft | 496 kts | 98° |
| 2026-05-04 23:16 | 51.11837 | 2.22667 | 26931 ft | 498 kts | 98° |
| 2026-05-04 23:16 | 51.11548 | 2.28177 | 27216 ft | 501 kts | 98° |
| 2026-05-04 23:16 | 51.11254 | 2.33696 | 27503 ft | 503 kts | 98° |
| 2026-05-04 23:16 | 51.10951 | 2.39251 | 27777 ft | 505 kts | 98° |
| 2026-05-04 23:17 | 51.10640 | 2.44843 | 28047 ft | 508 kts | 98° |
| 2026-05-04 23:17 | 51.10324 | 2.50437 | 28321 ft | 510 kts | 99° |
| 2026-05-04 23:17 | 51.10003 | 2.56070 | 28575 ft | 512 kts | 99° |
| 2026-05-04 23:17 | 51.09543 | 2.61686 | 28822 ft | 511 kts | 105° |
| 2026-05-04 23:18 | 51.08664 | 2.67006 | 29202 ft | 504 kts | 114° |
| 2026-05-04 23:18 | 51.07350 | 2.72187 | 29596 ft | 500 kts | 118° |
| 2026-05-04 23:18 | 51.05907 | 2.77208 | 29950 ft | 499 kts | 120° |
| 2026-05-04 23:18 | 51.04408 | 2.82169 | 30273 ft | 498 kts | 121° |
| 2026-05-04 23:19 | 51.02884 | 2.87103 | 30577 ft | 497 kts | 121° |
| 2026-05-04 23:19 | 51.01356 | 2.92023 | 30861 ft | 497 kts | 121° |
| 2026-05-04 23:19 | 50.99833 | 2.96933 | 31127 ft | 497 kts | 121° |
| 2026-05-04 23:19 | 50.98308 | 3.01865 | 31398 ft | 497 kts | 121° |
| 2026-05-04 23:20 | 50.96788 | 3.06795 | 31663 ft | 497 kts | 121° |
| 2026-05-04 23:20 | 50.95271 | 3.11719 | 31916 ft | 497 kts | 121° |
| 2026-05-04 23:20 | 50.93780 | 3.16556 | 32146 ft | 497 kts | 121° |
| 2026-05-04 23:20 | 50.92254 | 3.21500 | 32380 ft | 498 kts | 121° |
| 2026-05-04 23:21 | 50.90733 | 3.26418 | 32617 ft | 497 kts | 121° |
| 2026-05-04 23:21 | 50.89205 | 3.31348 | 32850 ft | 497 kts | 121° |
| 2026-05-04 23:21 | 50.87673 | 3.36278 | 32971 ft | 500 kts | 121° |
| 2026-05-04 23:21 | 50.86127 | 3.41237 | 32971 ft | 505 kts | 121° |
| 2026-05-04 23:22 | 50.83018 | 3.51191 | 32970 ft | 505 kts | 121° |
| 2026-05-04 23:22 | 50.79901 | 3.61140 | 32968 ft | 505 kts | 121° |
| 2026-05-04 23:23 | 50.76794 | 3.71010 | 32961 ft | 505 kts | 121° |
| 2026-05-04 23:23 | 50.73654 | 3.80945 | 32957 ft | 505 kts | 121° |
| 2026-05-04 23:24 | 50.70506 | 3.90864 | 32964 ft | 506 kts | 121° |
| 2026-05-04 23:24 | 50.67349 | 4.00771 | 32956 ft | 506 kts | 121° |
| 2026-05-04 23:25 | 50.64199 | 4.10615 | 32957 ft | 506 kts | 121° |
| 2026-05-04 23:25 | 50.61018 | 4.20516 | 32962 ft | 507 kts | 121° |
| 2026-05-04 23:26 | 50.57832 | 4.30395 | 32958 ft | 506 kts | 121° |
| 2026-05-04 23:26 | 50.54635 | 4.40272 | 32946 ft | 507 kts | 121° |
| 2026-05-04 23:27 | 50.51451 | 4.50067 | 32939 ft | 506 kts | 121° |
| 2026-05-04 23:27 | 50.48244 | 4.59893 | 32940 ft | 506 kts | 121° |
| 2026-05-04 23:28 | 50.45026 | 4.69692 | 32938 ft | 500 kts | 119° |
| 2026-05-04 23:28 | 50.41855 | 4.79341 | 32943 ft | 497 kts | 120° |
| 2026-05-04 23:29 | 50.38678 | 4.88977 | 32943 ft | 498 kts | 120° |
| 2026-05-04 23:29 | 50.35512 | 4.98533 | 32953 ft | 498 kts | 120° |
| 2026-05-04 23:30 | 50.32306 | 5.08170 | 32945 ft | 499 kts | 120° |
| 2026-05-04 23:30 | 50.29093 | 5.17791 | 32943 ft | 499 kts | 121° |
| 2026-05-04 23:31 | 50.25870 | 5.27402 | 32958 ft | 500 kts | 121° |
| 2026-05-04 23:31 | 50.22657 | 5.36951 | 32955 ft | 500 kts | 121° |
| 2026-05-04 23:32 | 50.19414 | 5.46551 | 32953 ft | 500 kts | 121° |
| 2026-05-04 23:32 | 50.16166 | 5.56130 | 32954 ft | 500 kts | 122° |
| 2026-05-04 23:33 | 50.12910 | 5.65698 | 32951 ft | 499 kts | 122° |
| 2026-05-04 23:33 | 50.09667 | 5.75188 | 32952 ft | 499 kts | 122° |
| 2026-05-04 23:34 | 50.06413 | 5.84734 | 32953 ft | 500 kts | 121° |
| 2026-05-04 23:34 | 50.03304 | 5.94403 | 32950 ft | 500 kts | 120° |
| 2026-05-04 23:35 | 50.00231 | 6.04091 | 32947 ft | 500 kts | 120° |
| 2026-05-04 23:35 | 49.97146 | 6.13690 | 32942 ft | 499 kts | 121° |
| 2026-05-04 23:36 | 49.94023 | 6.23307 | 32944 ft | 498 kts | 121° |
| 2026-05-04 23:36 | 49.90891 | 6.32894 | 32934 ft | 498 kts | 121° |
| 2026-05-04 23:37 | 49.87755 | 6.42464 | 32934 ft | 497 kts | 121° |
| 2026-05-04 23:37 | 49.84639 | 6.51941 | 32930 ft | 497 kts | 121° |
| 2026-05-04 23:38 | 49.81496 | 6.61466 | 32929 ft | 496 kts | 121° |
| 2026-05-04 23:38 | 49.78351 | 6.70961 | 32929 ft | 496 kts | 121° |
| 2026-05-04 23:39 | 49.75200 | 6.80434 | 32930 ft | 495 kts | 121° |
| 2026-05-04 23:39 | 49.72047 | 6.89879 | 32931 ft | 494 kts | 121° |
| 2026-05-04 23:40 | 49.68907 | 6.99255 | 32942 ft | 494 kts | 121° |
| 2026-05-04 23:40 | 49.65740 | 7.08672 | 32942 ft | 493 kts | 121° |
| 2026-05-04 23:41 | 49.62573 | 7.18054 | 32948 ft | 493 kts | 121° |
| 2026-05-04 23:41 | 49.59397 | 7.27428 | 32940 ft | 493 kts | 122° |
| 2026-05-04 23:42 | 49.56231 | 7.36736 | 32959 ft | 493 kts | 122° |
| 2026-05-04 23:42 | 49.53041 | 7.46084 | 32955 ft | 493 kts | 122° |
| 2026-05-04 23:43 | 49.49845 | 7.55417 | 32949 ft | 493 kts | 122° |
| 2026-05-04 23:43 | 49.46638 | 7.64746 | 32955 ft | 493 kts | 122° |
| 2026-05-04 23:44 | 49.43421 | 7.74072 | 32951 ft | 493 kts | 122° |
| 2026-05-04 23:44 | 49.40225 | 7.83303 | 32952 ft | 493 kts | 122° |
| 2026-05-04 23:45 | 49.36994 | 7.92599 | 32958 ft | 493 kts | 122° |
| 2026-05-04 23:45 | 49.33761 | 8.01869 | 32962 ft | 493 kts | 122° |
| 2026-05-04 23:46 | 49.30522 | 8.11123 | 32959 ft | 493 kts | 123° |
| 2026-05-04 23:46 | 49.27294 | 8.20308 | 32960 ft | 493 kts | 123° |
| 2026-05-04 23:47 | 49.24039 | 8.29540 | 32960 ft | 493 kts | 123° |
| 2026-05-04 23:47 | 49.20767 | 8.38786 | 32958 ft | 493 kts | 123° |
| 2026-05-04 23:48 | 49.17493 | 8.48008 | 32957 ft | 493 kts | 123° |
| 2026-05-04 23:48 | 49.14239 | 8.57138 | 32959 ft | 493 kts | 123° |
| 2026-05-04 23:49 | 49.10950 | 8.66337 | 32958 ft | 493 kts | 123° |
| 2026-05-04 23:49 | 49.07868 | 8.75718 | 32959 ft | 496 kts | 118° |
| 2026-05-04 23:50 | 49.05067 | 8.85323 | 32958 ft | 496 kts | 118° |
| 2026-05-04 23:50 | 49.02251 | 8.94845 | 32956 ft | 495 kts | 118° |
| 2026-05-04 23:51 | 48.99358 | 9.04354 | 32960 ft | 495 kts | 119° |
| 2026-05-04 23:51 | 48.96437 | 9.13836 | 32964 ft | 495 kts | 119° |
| 2026-05-04 23:52 | 48.93506 | 9.23309 | 32955 ft | 495 kts | 119° |
| 2026-05-04 23:52 | 48.90565 | 9.32787 | 32961 ft | 495 kts | 119° |
| 2026-05-04 23:53 | 48.87642 | 9.42175 | 32962 ft | 495 kts | 119° |
| 2026-05-04 23:53 | 48.84692 | 9.51619 | 32961 ft | 495 kts | 119° |
| 2026-05-04 23:54 | 48.81735 | 9.61047 | 32959 ft | 495 kts | 119° |
| 2026-05-04 23:54 | 48.78769 | 9.70465 | 32959 ft | 495 kts | 119° |
| 2026-05-04 23:55 | 48.75817 | 9.79807 | 32960 ft | 495 kts | 119° |
| 2026-05-04 23:56 | 48.71334 | 9.93900 | 32959 ft | 495 kts | 120° |
| 2026-05-04 23:56 | 48.68202 | 10.03158 | 32962 ft | 494 kts | 121° |
| 2026-05-04 23:57 | 48.65014 | 10.12354 | 32965 ft | 494 kts | 121° |
| 2026-05-04 23:57 | 48.61855 | 10.21507 | 32982 ft | 494 kts | 121° |
| 2026-05-04 23:58 | 48.58679 | 10.30738 | 32956 ft | 495 kts | 121° |
| 2026-05-04 23:58 | 48.55503 | 10.39951 | 32965 ft | 495 kts | 121° |
| 2026-05-04 23:59 | 48.52313 | 10.49171 | 32956 ft | 496 kts | 121° |
| 2026-05-04 23:59 | 48.49136 | 10.58320 | 32952 ft | 496 kts | 121° |
| 2026-05-05 00:00 | 48.45925 | 10.67532 | 32947 ft | 497 kts | 121° |
| 2026-05-05 00:00 | 48.42711 | 10.76718 | 32939 ft | 497 kts | 121° |
| 2026-05-05 00:01 | 48.39470 | 10.85951 | 32936 ft | 497 kts | 121° |
| 2026-05-05 00:01 | 48.36253 | 10.95083 | 32938 ft | 498 kts | 121° |
| 2026-05-05 00:02 | 48.33001 | 11.04281 | 32936 ft | 498 kts | 121° |
| 2026-05-05 00:02 | 48.29743 | 11.13464 | 32942 ft | 498 kts | 121° |
| 2026-05-05 00:03 | 48.26472 | 11.22651 | 32942 ft | 498 kts | 121° |
| 2026-05-05 00:03 | 48.23203 | 11.31801 | 32940 ft | 498 kts | 121° |
| 2026-05-05 00:04 | 48.22672 | 11.33284 | 32940 ft | 498 kts | 121° |
| 2026-05-05 00:04 | 48.20098 | 11.40462 | 32940 ft | 497 kts | 121° |
| 2026-05-05 00:05 | 48.16814 | 11.49592 | 32941 ft | 497 kts | 121° |
| 2026-05-05 00:05 | 48.13530 | 11.58689 | 32941 ft | 497 kts | 121° |
| 2026-05-05 00:06 | 48.10256 | 11.67728 | 32947 ft | 497 kts | 121° |
| 2026-05-05 00:06 | 48.08628 | 11.72216 | 32949 ft | 484 kts | 121° |
| 2026-05-05 00:06 | 48.07047 | 11.76571 | 32955 ft | 470 kts | 121° |
| 2026-05-05 00:06 | 48.05506 | 11.80810 | 32954 ft | 456 kts | 121° |
| 2026-05-05 00:07 | 48.04015 | 11.84903 | 32958 ft | 442 kts | 121° |
| 2026-05-05 00:07 | 48.02569 | 11.88862 | 32955 ft | 428 kts | 121° |
| 2026-05-05 00:07 | 48.01167 | 11.92697 | 32956 ft | 413 kts | 121° |
| 2026-05-05 00:07 | 47.99811 | 11.96396 | 32960 ft | 398 kts | 121° |
| 2026-05-05 00:08 | 47.98527 | 11.99898 | 32955 ft | 383 kts | 121° |
| 2026-05-05 00:08 | 47.97274 | 12.03309 | 32956 ft | 366 kts | 122° |
| 2026-05-05 00:08 | 47.96073 | 12.06577 | 32921 ft | 355 kts | 122° |
| 2026-05-05 00:08 | 47.94869 | 12.09830 | 32754 ft | 360 kts | 122° |
| 2026-05-05 00:09 | 47.93661 | 12.13076 | 32915 ft | 355 kts | 122° |
| 2026-05-05 00:09 | 47.92473 | 12.16265 | 33125 ft | 350 kts | 122° |
| 2026-05-05 00:09 | 47.91284 | 12.19446 | 33019 ft | 354 kts | 122° |
| 2026-05-05 00:09 | 47.90090 | 12.22631 | 32842 ft | 359 kts | 122° |
| 2026-05-05 00:10 | 47.88874 | 12.25874 | 32927 ft | 356 kts | 122° |
| 2026-05-05 00:10 | 47.87681 | 12.29064 | 33125 ft | 351 kts | 122° |
| 2026-05-05 00:10 | 47.86495 | 12.32252 | 33073 ft | 354 kts | 122° |
| 2026-05-05 00:10 | 47.85295 | 12.35482 | 32922 ft | 358 kts | 122° |
| 2026-05-05 00:11 | 47.84097 | 12.38730 | 32956 ft | 357 kts | 122° |
| 2026-05-05 00:11 | 47.82918 | 12.41953 | 33137 ft | 352 kts | 122° |
| 2026-05-05 00:11 | 47.81757 | 12.45157 | 33128 ft | 354 kts | 121° |
| 2026-05-05 00:11 | 47.80591 | 12.48401 | 32971 ft | 358 kts | 121° |
| 2026-05-05 00:12 | 47.79439 | 12.51638 | 32973 ft | 357 kts | 121° |
| 2026-05-05 00:12 | 47.78293 | 12.54896 | 33131 ft | 354 kts | 121° |
| 2026-05-05 00:12 | 47.77170 | 12.58141 | 33148 ft | 354 kts | 120° |
| 2026-05-05 00:13 | 47.74943 | 12.64738 | 33050 ft | 358 kts | 120° |
| 2026-05-05 00:13 | 47.72778 | 12.71333 | 33182 ft | 355 kts | 119° |
| 2026-05-05 00:14 | 47.70669 | 12.78020 | 33095 ft | 358 kts | 117° |
| 2026-05-05 00:14 | 47.69653 | 12.81371 | 33204 ft | 355 kts | 117° |
| 2026-05-05 00:14 | 47.68680 | 12.84686 | 33218 ft | 356 kts | 116° |
| 2026-05-05 00:14 | 47.67719 | 12.88081 | 33113 ft | 360 kts | 115° |
| 2026-05-05 00:15 | 47.66773 | 12.91542 | 33118 ft | 360 kts | 115° |
| 2026-05-05 00:15 | 47.65860 | 12.95028 | 32742 ft | 373 kts | 113° |
| 2026-05-05 00:15 | 47.64946 | 12.98879 | 31315 ft | 418 kts | 110° |
| 2026-05-05 00:15 | 47.64047 | 13.03182 | 30284 ft | 454 kts | 108° |
| 2026-05-05 00:16 | 47.63161 | 13.07800 | 29775 ft | 475 kts | 107° |
| 2026-05-05 00:16 | 47.61396 | 13.17364 | 29970 ft | 487 kts | 107° |
| 2026-05-05 00:16 | 47.60504 | 13.22162 | 30128 ft | 491 kts | 107° |
| 2026-05-05 00:17 | 47.59581 | 13.27056 | 30275 ft | 495 kts | 108° |
| 2026-05-05 00:17 | 47.58640 | 13.31983 | 30427 ft | 499 kts | 108° |
| 2026-05-05 00:17 | 47.57685 | 13.36947 | 30685 ft | 500 kts | 108° |
| 2026-05-05 00:17 | 47.56731 | 13.41883 | 30999 ft | 500 kts | 108° |
| 2026-05-05 00:18 | 47.55770 | 13.46840 | 31283 ft | 500 kts | 108° |
| 2026-05-05 00:18 | 47.54809 | 13.51778 | 31564 ft | 500 kts | 108° |
| 2026-05-05 00:18 | 47.53857 | 13.56665 | 31838 ft | 500 kts | 108° |
| 2026-05-05 00:18 | 47.52879 | 13.61666 | 32130 ft | 500 kts | 108° |
| 2026-05-05 00:19 | 47.51923 | 13.66545 | 32416 ft | 499 kts | 108° |
| 2026-05-05 00:19 | 47.50955 | 13.71475 | 32702 ft | 499 kts | 108° |
| 2026-05-05 00:19 | 47.49987 | 13.76394 | 32939 ft | 499 kts | 108° |
| 2026-05-05 00:20 | 47.48039 | 13.86255 | 32997 ft | 499 kts | 108° |
| 2026-05-05 00:20 | 47.46088 | 13.96081 | 33006 ft | 498 kts | 108° |
| 2026-05-05 00:21 | 47.44129 | 14.05895 | 33006 ft | 498 kts | 108° |
| 2026-05-05 00:21 | 47.42173 | 14.15640 | 32997 ft | 498 kts | 108° |
| 2026-05-05 00:22 | 47.40196 | 14.25448 | 33011 ft | 498 kts | 108° |
| 2026-05-05 00:22 | 47.38211 | 14.35243 | 33008 ft | 498 kts | 108° |
| 2026-05-05 00:23 | 47.36230 | 14.44969 | 33001 ft | 498 kts | 108° |
| 2026-05-05 00:23 | 47.34228 | 14.54755 | 32998 ft | 498 kts | 108° |
| 2026-05-05 00:24 | 47.32221 | 14.64511 | 32993 ft | 498 kts | 108° |
| 2026-05-05 00:24 | 47.30200 | 14.74292 | 32993 ft | 498 kts | 108° |
| 2026-05-05 00:25 | 47.28189 | 14.83982 | 32994 ft | 499 kts | 108° |
| 2026-05-05 00:25 | 47.26151 | 14.93748 | 32995 ft | 499 kts | 108° |
| 2026-05-05 00:26 | 47.24105 | 15.03512 | 32993 ft | 499 kts | 108° |
| 2026-05-05 00:26 | 47.22049 | 15.13267 | 32989 ft | 499 kts | 108° |
| 2026-05-05 00:27 | 47.19998 | 15.22955 | 32975 ft | 499 kts | 109° |
| 2026-05-05 00:27 | 47.17925 | 15.32705 | 32971 ft | 500 kts | 109° |
| 2026-05-05 00:28 | 47.15843 | 15.42445 | 32967 ft | 500 kts | 109° |
| 2026-05-05 00:28 | 47.13754 | 15.52175 | 32967 ft | 500 kts | 109° |
| 2026-05-05 00:29 | 47.11657 | 15.61895 | 32965 ft | 500 kts | 109° |
| 2026-05-05 00:29 | 47.09564 | 15.71551 | 32968 ft | 499 kts | 109° |
| 2026-05-05 00:30 | 47.07451 | 15.81255 | 32965 ft | 499 kts | 109° |
| 2026-05-05 00:30 | 47.05328 | 15.90964 | 32972 ft | 499 kts | 109° |
| 2026-05-05 00:31 | 47.03203 | 16.00634 | 32968 ft | 499 kts | 109° |
| 2026-05-05 00:31 | 47.01073 | 16.10255 | 32967 ft | 499 kts | 109° |
| 2026-05-05 00:32 | 46.98545 | 16.19740 | 32971 ft | 499 kts | 114° |
| 2026-05-05 00:32 | 46.95810 | 16.29079 | 32969 ft | 499 kts | 114° |
| 2026-05-05 00:33 | 46.93119 | 16.38440 | 32971 ft | 499 kts | 113° |
| 2026-05-05 00:33 | 46.90474 | 16.47822 | 32970 ft | 500 kts | 113° |
| 2026-05-05 00:34 | 46.87849 | 16.57163 | 32970 ft | 500 kts | 113° |
| 2026-05-05 00:34 | 46.85198 | 16.66560 | 32976 ft | 500 kts | 113° |
| 2026-05-05 00:35 | 46.82536 | 16.75950 | 32982 ft | 501 kts | 113° |
| 2026-05-05 00:35 | 46.79866 | 16.85326 | 32987 ft | 501 kts | 113° |
| 2026-05-05 00:36 | 46.77198 | 16.94657 | 32993 ft | 501 kts | 113° |
| 2026-05-05 00:36 | 46.74509 | 17.04025 | 32994 ft | 501 kts | 113° |
| 2026-05-05 00:37 | 46.71807 | 17.13403 | 32995 ft | 502 kts | 113° |
| 2026-05-05 00:37 | 46.69100 | 17.22762 | 32996 ft | 502 kts | 113° |
| 2026-05-05 00:38 | 46.66382 | 17.32127 | 32995 ft | 502 kts | 113° |
| 2026-05-05 00:38 | 46.63670 | 17.41435 | 33000 ft | 503 kts | 114° |
| 2026-05-05 00:39 | 46.60936 | 17.50782 | 33006 ft | 502 kts | 114° |
| 2026-05-05 00:39 | 46.58192 | 17.60125 | 33015 ft | 502 kts | 114° |
| 2026-05-05 00:40 | 46.55437 | 17.69471 | 33020 ft | 503 kts | 114° |
| 2026-05-05 00:40 | 46.52697 | 17.78736 | 33020 ft | 503 kts | 114° |
| 2026-05-05 00:41 | 46.49933 | 17.88042 | 33022 ft | 502 kts | 114° |
| 2026-05-05 00:41 | 46.47155 | 17.97363 | 33027 ft | 502 kts | 113° |
| 2026-05-05 00:42 | 46.44375 | 18.06652 | 33027 ft | 503 kts | 113° |
| 2026-05-05 00:42 | 46.41582 | 18.15956 | 33029 ft | 503 kts | 113° |
| 2026-05-05 00:43 | 46.38804 | 18.25173 | 33028 ft | 503 kts | 113° |
| 2026-05-05 00:43 | 46.35997 | 18.34448 | 33032 ft | 503 kts | 113° |
| 2026-05-05 00:44 | 46.33182 | 18.43721 | 33036 ft | 503 kts | 113° |
| 2026-05-05 00:44 | 46.30360 | 18.52979 | 33035 ft | 503 kts | 113° |
| 2026-05-05 00:45 | 46.27544 | 18.62184 | 33036 ft | 503 kts | 113° |
| 2026-05-05 00:45 | 46.24705 | 18.71431 | 33036 ft | 504 kts | 113° |
| 2026-05-05 00:46 | 46.21859 | 18.80670 | 33040 ft | 504 kts | 113° |
| 2026-05-05 00:46 | 46.19001 | 18.89911 | 33042 ft | 504 kts | 113° |
| 2026-05-05 00:47 | 46.16162 | 18.99059 | 33042 ft | 504 kts | 113° |
| 2026-05-05 00:47 | 46.13280 | 19.08310 | 33043 ft | 504 kts | 113° |
| 2026-05-05 00:48 | 46.10396 | 19.17535 | 33043 ft | 504 kts | 113° |
| 2026-05-05 00:48 | 46.07508 | 19.26738 | 33045 ft | 504 kts | 113° |
| 2026-05-05 00:49 | 46.04612 | 19.35935 | 33046 ft | 505 kts | 113° |
| 2026-05-05 00:49 | 46.01494 | 19.44916 | 33046 ft | 505 kts | 117° |
| 2026-05-05 00:50 | 45.98119 | 19.53763 | 33047 ft | 505 kts | 118° |
| 2026-05-05 00:50 | 45.94756 | 19.62630 | 33049 ft | 505 kts | 117° |
| 2026-05-05 00:51 | 45.91435 | 19.71516 | 33051 ft | 505 kts | 117° |
| 2026-05-05 00:51 | 45.88147 | 19.80347 | 33056 ft | 505 kts | 117° |
| 2026-05-05 00:52 | 45.84830 | 19.89232 | 33054 ft | 505 kts | 117° |
| 2026-05-05 00:52 | 45.81509 | 19.98090 | 33056 ft | 504 kts | 117° |
| 2026-05-05 00:53 | 45.78178 | 20.06944 | 33052 ft | 504 kts | 117° |
| 2026-05-05 00:53 | 45.74862 | 20.15728 | 33056 ft | 504 kts | 117° |
| 2026-05-05 00:54 | 45.71518 | 20.24558 | 33057 ft | 505 kts | 117° |